Latest Weather Observations for Minlaton Airport

IDS60801

Issued at 10:01 am CST Tuesday 26 July 2016 (issued every 30 minutes, with the page automatically refreshed every 10 minutes)

About weather observations | Map of weather stations | Latest weather observations for SA | Other Formats
Station Details ID: 022031 Name: MINLATON AERO Lat: -34.75 Lon: 137.53 Height: 32.0 m
Data from the previous 72 hours. | See also: Recent months at Minlaton Airport
Date/Time
CST
Temp
°C
App
Temp
°C
Dew
Point
°C
Rel
Hum
%
Delta-T
°C
Wind Press
QNH
hPa
Press
MSL
hPa
Rain since
9am
mm
Dir  Spd
km/h
Gust
km/h
Spd
kts
Gust
kts
26/10:00am 11.3 4.8 8.0 80 1.6 NNW 32 41 17 22 1014.8 1014.8 0.0
26/09:30am 11.3 4.0 7.4 77 1.9 NW 35 44 19 24 1015.1 1015.1 0.0
26/09:00am 11.5 4.7 6.8 73 2.2 NW 32 39 17 21 1015.3 1015.3 2.2
26/08:30am 10.3 4.9 6.3 76 1.9 NW 24 33 13 18 1015.3 1015.3 2.2
26/08:00am 9.7 3.8 5.9 77 1.7 WNW 26 35 14 19 1015.4 1015.4 2.2
26/07:30am 9.5 3.5 5.5 76 1.8 WNW 26 33 14 18 1015.4 1015.4 2.2
26/07:00am 10.1 4.1 5.3 72 2.2 W 26 32 14 17 1015.4 1015.4 2.2
26/06:30am 9.1 3.1 5.1 76 1.8 W 26 32 14 17 1015.6 1015.6 2.2
26/06:00am 9.4 3.4 5.4 76 1.8 W 26 30 14 16 1015.6 1015.6 2.2
26/05:30am 9.1 3.1 5.5 78 1.6 W 26 35 14 19 1015.5 1015.5 2.2
26/05:00am 8.9 3.6 5.1 77 1.7 W 22 30 12 16 1015.5 1015.5 2.2
26/04:30am 9.6 2.5 6.3 80 1.5 W 33 52 18 28 1015.7 1015.7 2.2
26/04:25am 9.9 2.9 5.9 76 1.8 W 32 52 17 28 1015.6 1015.6 2.2
26/04:00am 9.3 2.8 4.7 73 2.1 W 28 39 15 21 1015.8 1015.8 2.2
26/03:30am 9.2 4.2 6.3 82 1.3 WNW 22 30 12 16 1016.1 1016.1 2.2
26/03:00am 8.5 4.7 5.8 83 1.2 W 15 19 8 10 1016.4 1016.4 2.2
26/02:30am 8.8 4.1 5.9 82 1.3 SW 20 32 11 17 1016.6 1016.6 2.2
26/02:00am 8.5 3.7 5.6 82 1.3 WSW 20 24 11 13 1016.8 1016.8 2.2
26/01:30am 8.8 3.1 5.0 77 1.7 SW 24 35 13 19 1017.0 1017.0 2.2
26/01:00am 10.0 3.0 4.2 67 2.6 W 30 41 16 22 1016.9 1016.9 2.2
26/12:30am 9.6 3.3 4.0 68 2.5 W 26 32 14 17 1017.0 1017.0 2.2
26/12:00am 9.8 3.2 4.2 68 2.5 W 28 35 15 19 1017.1 1017.1 2.2
 
Date/Time
CST
Temp
°C
App
Temp
°C
Dew
Point
°C
Rel
Hum
%
Delta-T
°C
Wind Press
QNH
hPa
Press
MSL
hPa
Rain since
9am
mm
Dir  Spd
km/h
Gust
km/h
Spd
kts
Gust
kts
25/11:30pm 8.4 3.6 4.6 77 1.7 W 19 22 10 12 1017.4 1017.4 2.2
25/11:04pm 9.3 2.3 4.1 70 2.3 WSW 30 48 16 26 1017.6 1017.6 2.2
25/11:00pm 9.5 2.2 4.7 72 2.1 WSW 32 48 17 26 1017.6 1017.6 2.2
25/10:46pm 10.5 3.9 4.4 66 2.7 WSW 28 50 15 27 1017.3 1017.3 2.2
25/10:30pm 9.8 3.8 3.3 64 2.8 WSW 24 32 13 17 1017.2 1017.2 2.2
25/10:00pm 9.3 3.3 3.3 66 2.6 WSW 24 30 13 16 1017.3 1017.3 2.2
25/09:30pm 9.7 3.8 3.9 67 2.5 WSW 24 30 13 16 1017.2 1017.2 2.2
25/09:00pm 9.6 3.3 4.0 68 2.5 WSW 26 33 14 18 1017.2 1017.2 2.2
25/08:30pm 9.8 2.9 4.8 71 2.2 WSW 30 37 16 20 1016.9 1016.9 2.2
25/08:00pm 10.4 3.2 5.2 70 2.4 WSW 32 39 17 21 1016.5 1016.5 2.2
25/07:30pm 10.4 4.0 5.2 70 2.4 WSW 28 35 15 19 1016.2 1016.2 2.2
25/07:00pm 11.2 3.4 4.9 65 2.9 WSW 35 46 19 25 1015.8 1015.8 2.2
25/06:30pm 10.9 2.9 5.9 71 2.3 WSW 37 46 20 25 1015.2 1015.2 2.2
25/06:00pm 11.2 4.0 7.7 79 1.7 WSW 35 48 19 26 1014.9 1014.9 2.2
25/05:30pm 11.1 4.5 8.5 84 1.3 WSW 33 43 18 23 1014.5 1014.5 2.2
25/05:00pm 10.7 5.1 8.8 88 0.9 WSW 28 35 15 19 1014.4 1014.4 2.2
25/04:30pm 11.0 4.2 9.1 88 0.9 WSW 35 44 19 24 1013.9 1013.9 2.2
25/04:00pm 11.1 4.4 9.5 90 0.8 WSW 35 52 19 28 1013.5 1013.5 2.2
25/03:54pm 11.5 5.4 9.8 89 0.9 WSW 32 52 17 28 1013.4 1013.4 2.0
25/03:30pm 11.7 4.3 9.9 89 0.9 WSW 39 52 21 28 1013.0 1013.0 2.0
25/03:00pm 12.6 3.2 10.3 86 1.2 W 50 74 27 40 1012.5 1012.5 2.0
25/02:30pm 12.3 3.9 10.9 91 0.7 W 46 69 25 37 1012.4 1012.4 2.0
25/02:26pm 12.4 4.4 10.6 89 0.9 WNW 43 69 23 37 1012.5 1012.5 1.6
25/02:25pm 12.7 5.2 10.9 89 0.9 WNW 41 52 22 28 1012.4 1012.4 1.4
25/02:00pm 14.0 6.6 11.2 83 1.5 NW 41 52 22 28 1012.0 1012.0 0.0
25/01:30pm 13.6 5.8 11.7 88 1.0 NW 44 59 24 32 1012.4 1012.4 0.0
25/01:09pm 13.1 6.0 12.2 94 0.5 NW 41 59 22 32 1012.7 1012.7 0.0
25/01:00pm 11.9 4.0 10.8 93 0.6 NW 43 57 23 31 1013.1 1013.1 0.0
25/12:30pm 12.6 3.9 10.1 85 1.3 NW 46 57 25 31 1013.1 1013.1 0.0
25/12:00pm 12.5 3.8 10.0 85 1.3 NW 46 56 25 30 1013.8 1013.8 0.0
25/11:30am 12.0 4.2 9.7 86 1.2 NW 41 59 22 32 1014.5 1014.5 0.0
25/11:00am 12.4 4.0 9.8 84 1.3 NW 44 54 24 29 1014.7 1014.7 0.0
25/10:30am 11.8 4.6 9.2 84 1.3 NW 37 52 20 28 1015.1 1015.1 0.0
25/10:00am 12.2 4.7 9.6 84 1.3 NW 39 46 21 25 1015.0 1015.0 0.0
25/09:30am 12.1 5.4 9.7 85 1.2 NW 35 46 19 25 1015.1 1015.1 0.0
25/09:00am 11.9 5.1 9.1 83 1.4 NW 35 43 19 23 1015.0 1015.0 4.2
25/08:30am 11.3 4.8 8.9 85 1.2 NW 33 43 18 23 1015.1 1015.1 4.2
25/08:00am 10.7 4.7 8.5 86 1.1 NW 30 37 16 20 1015.1 1015.1 4.2
25/07:30am 10.3 4.6 8.2 87 1.0 NW 28 35 15 19 1015.2 1015.2 4.2
25/07:00am 10.5 4.3 7.9 84 1.3 NW 30 37 16 20 1015.2 1015.2 4.2
25/06:30am 10.3 4.4 7.5 83 1.3 WNW 28 37 15 20 1014.8 1014.8 4.2
25/06:00am 10.3 4.4 7.7 84 1.2 WNW 28 35 15 19 1015.0 1015.0 4.2
25/05:30am 10.4 4.1 7.6 83 1.3 WNW 30 35 16 19 1015.0 1015.0 4.2
25/05:00am 10.9 4.3 7.6 80 1.6 WNW 32 37 17 20 1014.8 1014.8 4.2
25/04:30am 10.1 5.0 7.7 85 1.2 WNW 24 30 13 16 1014.9 1014.9 4.2
25/04:00am 9.9 5.2 7.7 86 1.1 WNW 22 26 12 14 1015.1 1015.1 4.2
25/03:30am 10.0 4.1 7.6 85 1.1 W 28 35 15 19 1015.1 1015.1 4.2
25/03:00am 9.8 3.3 8.1 89 0.8 W 32 46 17 25 1015.1 1015.1 4.2
25/02:49am 10.7 4.9 7.9 83 1.4 W 28 54 15 29 1015.2 1015.2 4.0
25/02:30am 10.8 4.0 7.1 78 1.8 W 32 48 17 26 1015.3 1015.3 4.0
25/02:00am 10.0 4.1 7.3 83 1.3 W 28 37 15 20 1015.4 1015.4 4.0
25/01:30am 10.5 2.7 6.8 78 1.7 WSW 37 46 20 25 1015.3 1015.3 4.0
25/01:15am 10.4 2.9 6.2 75 2.0 WSW 35 52 19 28 1015.1 1015.1 4.0
25/01:00am 9.4 4.1 6.7 83 1.3 WSW 24 32 13 17 1015.2 1015.2 4.0
25/12:30am 9.2 4.3 6.8 85 1.1 WSW 22 28 12 15 1015.3 1015.3 4.0
25/12:20am 9.2 2.9 5.9 80 1.5 WSW 28 46 15 25 1015.2 1015.2 4.0
25/12:00am 9.3 3.3 6.9 85 1.1 WSW 28 35 15 19 1015.2 1015.2 4.0
 
Date/Time
CST
Temp
°C
App
Temp
°C
Dew
Point
°C
Rel
Hum
%
Delta-T
°C
Wind Press
QNH
hPa
Press
MSL
hPa
Rain since
9am
mm
Dir  Spd
km/h
Gust
km/h
Spd
kts
Gust
kts
24/11:30pm 9.3 2.4 6.4 82 1.3 WSW 32 46 17 25 1014.9 1014.9 4.0
24/11:06pm 10.2 3.5 7.4 83 1.3 WSW 32 54 17 29 1014.7 1014.7 4.0
24/11:00pm 9.9 3.2 7.2 83 1.3 WSW 32 41 17 22 1014.6 1014.6 4.0
24/10:30pm 9.6 1.3 6.3 80 1.5 WSW 39 52 21 28 1014.1 1014.1 4.0
24/10:09pm 9.9 2.6 7.3 84 1.2 WSW 35 59 19 32 1014.0 1014.0 3.8
24/10:00pm 9.9 1.8 7.2 83 1.3 W 39 46 21 25 1013.8 1013.8 3.8
24/09:30pm 9.4 0.3 6.8 84 1.2 WSW 44 69 24 37 1013.4 1013.4 3.8
24/09:07pm 10.7 2.1 6.6 76 1.9 W 41 59 22 32 1013.1 1013.1 3.2
24/09:00pm 10.9 1.7 6.5 74 2.1 W 44 59 24 32 1013.1 1013.1 3.2
24/08:31pm 10.9 2.0 6.8 76 1.9 W 43 65 23 35 1012.8 1012.8 3.2
24/08:30pm 10.8 2.0 7.1 78 1.8 W 43 57 23 31 1012.9 1012.9 3.2
24/08:00pm 10.2 0.8 7.3 82 1.4 W 46 61 25 33 1012.6 1012.6 3.2
24/07:30pm 10.8 1.8 7.1 78 1.8 W 44 63 24 34 1012.3 1012.3 3.2
24/07:13pm 10.6 1.6 7.3 80 1.6 WSW 44 63 24 34 1011.9 1011.9 3.2
24/07:00pm 11.9 1.5 6.2 68 2.7 W 50 67 27 36 1011.7 1011.7 3.0
24/06:30pm 11.2 1.1 7.3 77 1.9 W 50 69 27 37 1011.3 1011.3 3.0
24/06:18pm 11.2 1.9 7.7 79 1.7 W 46 65 25 35 1011.1 1011.1 3.0
24/06:00pm 10.9 0.7 7.0 77 1.9 W 50 67 27 36 1010.7 1010.7 3.0
24/05:31pm 11.4 0.9 7.3 76 2.0 W 52 78 28 42 1010.3 1010.3 2.8
24/05:30pm 11.6 1.4 7.1 74 2.2 W 50 67 27 36 1010.2 1010.2 2.8
24/05:00pm 11.9 0.9 6.6 70 2.5 W 54 72 29 39 1009.7 1009.7 2.8
24/04:30pm 11.8 0.4 6.7 71 2.4 W 56 82 30 44 1009.4 1009.4 2.8
24/04:00pm 12.9 1.9 6.7 66 3.0 W 54 76 29 41 1008.8 1008.8 2.8
24/03:43pm 12.1 3.1 7.2 72 2.4 W 44 63 24 34 1008.7 1008.7 2.8
24/03:30pm 12.2 1.2 6.9 70 2.5 WNW 54 70 29 38 1008.6 1008.6 2.8
24/03:00pm 13.0 3.4 7.9 71 2.5 WNW 48 69 26 37 1008.5 1008.5 2.8
24/02:43pm 12.6 3.2 7.3 70 2.6 WNW 46 69 25 37 1008.3 1008.3 2.8
24/02:30pm 12.2 3.2 7.1 71 2.5 WNW 44 59 24 32 1008.4 1008.4 2.8
24/02:03pm 11.4 3.3 7.1 75 2.1 WNW 39 59 21 32 1008.3 1008.3 2.8
24/02:00pm 11.1 3.5 7.4 78 1.8 WNW 37 46 20 25 1008.5 1008.5 2.8
24/01:30pm 10.8 1.9 6.9 77 1.9 WNW 43 61 23 33 1008.3 1008.3 2.6
24/01:19pm 9.1 -0.7 7.2 88 0.9 W 48 74 26 40 1008.5 1008.5 2.6
24/01:12pm 7.5 -3.9 4.8 83 1.2 W 54 80 29 43 1008.6 1008.6 2.6
24/01:10pm 7.3 -4.0 3.2 75 1.7 W 52 80 28 43 1008.6 1008.6 2.4
24/01:08pm 11.5 1.8 6.0 69 2.6 WNW 46 74 25 40 1008.4 1008.4 1.8
24/01:00pm 12.8 3.6 6.4 65 3.0 WNW 44 59 24 32 1008.3 1008.3 1.8
24/12:30pm 12.3 2.2 5.9 65 3.0 W 48 65 26 35 1008.6 1008.6 1.8
24/12:08pm 11.9 1.5 6.0 67 2.8 W 50 69 27 37 1008.8 1008.8 1.8
24/12:00pm 11.3 0.1 4.1 61 3.2 W 52 65 28 35 1008.7 1008.7 1.8
24/11:30am 11.2 2.0 6.5 73 2.2 WNW 44 59 24 32 1008.7 1008.7 1.8
24/11:09am 10.4 2.5 7.8 84 1.3 WNW 39 61 21 33 1008.6 1008.6 1.8
24/11:00am 9.6 1.5 7.2 85 1.1 WNW 39 50 21 27 1008.7 1008.7 1.8
24/10:37am 9.1 -0.8 4.9 75 1.9 WNW 46 76 25 41 1009.1 1009.1 1.6
24/10:30am 10.4 2.0 7.5 82 1.4 WNW 41 52 22 28 1008.6 1008.6 1.4
24/10:00am 9.2 1.1 6.8 85 1.1 NW 39 52 21 28 1008.1 1008.1 1.4
24/09:45am 8.6 1.9 7.5 93 0.5 WNW 32 44 17 24 1008.2 1008.2 1.4
24/09:30am 6.9 -1.9 5.4 90 0.7 W 41 54 22 29 1008.4 1008.4 1.0
24/09:17am 7.3 -2.0 4.8 84 1.1 W 43 82 23 44 1008.3 1008.3 0.4
24/09:00am 8.5 -0.4 7.0 90 0.7 W 43 57 23 31 1008.0 1008.0 4.8
24/08:56am 8.5 0.4 7.1 91 0.7 W 39 57 21 31 1008.0 1008.0 4.8
24/08:39am 8.4 -1.4 7.0 91 0.7 WNW 48 67 26 36 1007.8 1007.8 4.2
24/08:30am 9.5 -0.5 7.9 90 0.8 WNW 50 69 27 37 1007.6 1007.6 3.6
24/08:03am 10.1 0.9 8.2 88 0.9 NNW 46 65 25 35 1007.1 1007.1 2.2
24/08:00am 10.1 0.2 8.2 88 0.9 NNW 50 65 27 35 1007.1 1007.1 2.2
24/07:30am 10.2 0.5 7.3 82 1.4 NNW 48 63 26 34 1007.3 1007.3 2.2
24/07:09am 10.1 0.4 7.3 83 1.3 NNW 48 69 26 37 1007.4 1007.4 2.0
24/07:00am 10.6 1.2 7.1 79 1.7 NNW 46 63 25 34 1007.4 1007.4 2.0
24/06:30am 10.1 0.8 7.7 85 1.2 NNW 46 65 25 35 1007.6 1007.6 2.0
24/06:23am 10.3 1.5 7.4 82 1.4 NNW 43 65 23 35 1007.7 1007.7 2.0
24/06:00am 10.3 2.1 8.2 87 1.0 NNW 41 54 22 29 1008.0 1008.0 2.0
24/05:30am 10.0 2.0 8.9 93 0.5 NNW 41 50 22 27 1008.1 1008.1 2.0
24/05:02am 9.9 2.6 8.7 92 0.6 NNW 37 56 20 30 1008.4 1008.4 1.6
24/05:00am 9.8 2.5 8.6 92 0.6 NNW 37 52 20 28 1008.4 1008.4 1.4
24/04:30am 9.5 0.9 8.1 91 0.7 NNW 43 61 23 33 1008.8 1008.8 1.2
24/04:13am 9.7 1.3 7.3 85 1.1 NNW 41 61 22 33 1009.0 1009.0 1.0
24/04:00am 9.9 2.2 7.3 84 1.2 NNW 37 46 20 25 1009.3 1009.3 1.0
24/03:30am 8.2 2.6 7.3 94 0.4 N 26 35 14 19 1010.0 1010.0 1.0
24/03:00am 7.2 1.7 6.1 93 0.5 N 24 28 13 15 1010.6 1010.6 1.0
24/02:30am 6.7 1.5 5.7 93 0.4 N 22 28 12 15 1011.0 1011.0 1.0
24/02:00am 6.8 1.6 5.7 93 0.5 N 22 28 12 15 1011.4 1011.4 1.0
24/01:30am 6.5 1.7 5.5 93 0.4 NNE 20 24 11 13 1011.7 1011.7 1.0
24/01:00am 6.3 1.1 5.4 94 0.4 N 22 26 12 14 1012.2 1012.2 1.0
24/12:30am 6.2 1.0 5.3 94 0.4 N 22 26 12 14 1012.9 1012.9 1.0
24/12:00am 6.0 1.1 5.1 94 0.4 N 20 24 11 13 1013.6 1013.6 1.0
 
Date/Time
CST
Temp
°C
App
Temp
°C
Dew
Point
°C
Rel
Hum
%
Delta-T
°C
Wind Press
QNH
hPa
Press
MSL
hPa
Rain since
9am
mm
Dir  Spd
km/h
Gust
km/h
Spd
kts
Gust
kts
23/11:30pm 6.1 1.2 5.1 93 0.4 N 20 24 11 13 1014.0 1014.0 1.0
23/11:00pm 5.9 1.5 4.9 93 0.4 N 17 20 9 11 1014.2 1014.2 1.0
23/10:30pm 6.3 1.6 5.3 93 0.4 N 19 22 10 12 1014.3 1014.3 1.0
23/10:00pm 6.9 2.3 5.8 93 0.5 N 19 20 10 11 1014.7 1014.7 1.0
23/09:30pm 7.1 2.6 6.2 94 0.4 N 19 20 10 11 1015.0 1015.0 1.0
23/09:00pm 5.7 1.3 4.8 94 0.4 NNE 17 20 9 11 1015.0 1015.0 1.0
23/08:30pm 5.6 1.2 4.7 94 0.4 NNE 17 19 9 10 1015.1 1015.1 1.0
23/08:00pm 5.9 1.5 4.9 93 0.4 N 17 19 9 10 1015.2 1015.2 1.0
23/07:30pm 5.9 1.9 4.7 92 0.5 NNE 15 17 8 9 1015.3 1015.3 1.0
23/07:00pm 5.9 1.5 4.5 91 0.6 NNE 17 17 9 9 1015.3 1015.3 1.0
23/06:30pm 6.3 2.3 4.9 91 0.6 N 15 15 8 8 1015.2 1015.2 1.0
23/06:00pm 7.0 3.5 5.5 90 0.7 N 13 15 7 8 1015.0 1015.0 1.0
23/05:30pm 7.9 4.6 6.2 89 0.8 N 13 13 7 7 1015.0 1015.0 1.0
23/05:00pm 9.9 7.7 7.7 86 1.1 NNW 9 11 5 6 1015.0 1015.0 1.0
23/04:30pm 9.8 7.3 8.2 90 0.8 W 11 19 6 10 1015.1 1015.1 1.0
23/04:00pm 10.8 7.2 6.7 76 1.9 WNW 15 17 8 9 1015.1 1015.1 0.2
23/03:30pm 11.4 8.0 7.7 78 1.8 WNW 15 19 8 10 1015.1 1015.1 0.2
23/03:00pm 11.3 7.5 6.0 70 2.5 WNW 15 20 8 11 1015.2 1015.2 0.2
23/02:30pm 11.7 8.0 6.2 69 2.6 W 15 20 8 11 1015.1 1015.1 0.2
23/02:00pm 12.0 7.7 7.1 72 2.4 WNW 19 24 10 13 1015.2 1015.2 0.2
23/01:30pm 11.4 9.1 7.5 77 1.9 NNW 9 13 5 7 1015.1 1015.1 0.2
23/01:00pm 9.9 5.5 6.6 80 1.5 W 19 24 10 13 1015.4 1015.4 0.0
23/12:30pm 11.5 7.1 6.6 72 2.3 WSW 19 26 10 14 1015.4 1015.4 0.0
23/12:00pm 12.2 9.6 7.7 74 2.2 WSW 11 19 6 10 1015.5 1015.5 0.0
23/11:30am 11.1 6.8 7.2 77 1.9 WSW 19 28 10 15 1015.9 1015.9 0.0
23/11:00am 11.4 8.5 6.3 71 2.4 SW 11 15 6 8 1015.8 1015.8 0.0
23/10:30am 11.5 8.7 7.0 74 2.1 SSW 11 17 6 9 1015.6 1015.6 0.0

Other Formats:

Comma delimited format used in spreadsheet applications
http://www.bom.gov.au/fwo/IDS60801/IDS60801.95659.axf

JavaScript Object Notation format (JSON) in row-major order
http://www.bom.gov.au/fwo/IDS60801/IDS60801.95659.json